createdAt,value
2019-02-28T00:05:11.710Z,6.46
2019-02-28T00:11:06.716Z,6.95
2019-02-28T00:17:01.716Z,6.6
2019-02-28T00:22:56.715Z,6.86
2019-02-28T00:28:51.734Z,6.68
2019-02-28T00:34:46.742Z,7.03
2019-02-28T00:40:41.763Z,6.36
2019-02-28T00:46:36.783Z,6.49
2019-02-28T00:52:32.042Z,6.45
2019-02-28T00:58:28.833Z,6.81
2019-02-28T01:04:21.767Z,7.57
2019-02-28T01:10:16.736Z,7.86
2019-02-28T01:16:11.761Z,7.86
2019-02-28T01:22:06.747Z,17.44
2019-02-28T01:28:01.770Z,12.92
2019-02-28T01:33:58.726Z,11.94
2019-02-28T01:39:51.772Z,9.4
2019-02-28T01:45:46.756Z,9.03
2019-02-28T01:51:41.773Z,11.61
2019-02-28T01:57:42.234Z,15.19
2019-02-28T02:03:31.772Z,12.93
2019-02-28T02:09:26.780Z,10.09
2019-02-28T02:15:21.785Z,9.62
2019-02-28T02:21:16.792Z,9.73
2019-02-28T02:27:11.791Z,10.65
2019-02-28T02:33:13.479Z,9.59
2019-02-28T02:39:01.861Z,8.86
2019-02-28T02:44:56.794Z,10.34
2019-02-28T02:50:51.838Z,19.99
2019-02-28T02:56:46.863Z,9.75
2019-02-28T03:02:41.798Z,9.19
2019-02-28T03:08:37.435Z,9.3
2019-02-28T03:14:31.799Z,9.24
2019-02-28T03:20:26.881Z,9.83
2019-02-28T03:26:21.801Z,10.7
2019-02-28T03:32:16.879Z,10.44
2019-02-28T03:38:12.734Z,10.08
2019-02-28T03:44:06.829Z,10.14
2019-02-28T03:50:01.835Z,10.47
2019-02-28T03:55:56.849Z,11.28
2019-02-28T04:01:51.836Z,11.7
2019-02-28T04:07:52.173Z,16.36
2019-02-28T04:13:41.875Z,15.36
2019-02-28T04:19:36.861Z,15.62
2019-02-28T04:25:31.889Z,16.49
2019-02-28T04:31:26.882Z,15.57
2019-02-28T04:37:21.884Z,13.3
2019-02-28T04:43:16.851Z,13.28
2019-02-28T04:49:11.869Z,14.27
2019-02-28T04:55:06.885Z,14.19
2019-02-28T05:01:01.873Z,14.72
2019-02-28T05:06:56.886Z,13.39
2019-02-28T05:12:51.875Z,14.14
2019-02-28T05:18:46.879Z,16.07
2019-02-28T05:24:42.544Z,19.06
2019-02-28T05:30:36.885Z,19.58
2019-02-28T05:36:34.520Z,20.33
2019-02-28T05:42:26.877Z,20.39
2019-02-28T05:48:21.908Z,19.46
2019-02-28T05:54:17.262Z,19.34
2019-02-28T06:00:11.890Z,17.99
2019-02-28T06:06:08.035Z,17.62
2019-02-28T06:12:01.915Z,16.48
2019-02-28T06:17:56.950Z,18.43
2019-02-28T06:23:51.898Z,18.81
2019-02-28T06:29:46.920Z,19.15
2019-02-28T06:35:41.919Z,19.87
2019-02-28T06:41:39.825Z,20.66
2019-02-28T06:47:31.943Z,20.36
2019-02-28T06:53:26.912Z,20.16
2019-02-28T06:59:21.925Z,19.37
2019-02-28T07:05:16.931Z,19.61
2019-02-28T07:11:11.957Z,18.77
2019-02-28T07:17:07.613Z,19.27
2019-02-28T07:23:01.944Z,19.24
2019-02-28T07:28:56.997Z,19.41
2019-02-28T07:34:54.955Z,19.33
2019-02-28T07:40:49.384Z,19.52
2019-02-28T07:46:43.130Z,20.05
2019-02-28T07:52:36.969Z,20.57
2019-02-28T07:58:33.395Z,23.48
2019-02-28T08:04:27.041Z,21.32
2019-02-28T08:10:21.967Z,19.86
2019-02-28T08:16:16.972Z,21
2019-02-28T08:22:12.041Z,17.23
2019-02-28T08:28:07.000Z,20.17
2019-02-28T08:34:01.989Z,17.49
2019-02-28T08:39:56.987Z,14.11
2019-02-28T08:45:51.990Z,13.29
2019-02-28T08:51:47.004Z,13.36
2019-02-28T08:57:41.991Z,13.03
2019-02-28T09:03:36.989Z,13.18
2019-02-28T09:09:34.383Z,13.46
2019-02-28T09:15:30.213Z,16.37
2019-02-28T09:21:22.009Z,15.37
2019-02-28T09:27:17.002Z,15.73
2019-02-28T09:33:12.013Z,17.72
2019-02-28T09:39:07.016Z,19.2
2019-02-28T09:45:06.395Z,18.05
2019-02-28T09:50:58.194Z,19.06
2019-02-28T09:56:52.061Z,17.35
2019-02-28T10:02:47.043Z,18.5
2019-02-28T10:08:42.079Z,20.15
2019-02-28T10:14:37.036Z,19.45
2019-02-28T10:20:32.073Z,21.37
2019-02-28T10:26:27.031Z,24.46
2019-02-28T10:32:22.026Z,29.03
2019-02-28T10:38:17.066Z,27.9
2019-02-28T10:44:12.042Z,25.95
2019-02-28T10:50:07.067Z,27.71
2019-02-28T10:56:02.055Z,28.49
2019-02-28T11:01:57.072Z,28.31
2019-02-28T11:07:52.082Z,28.47
2019-02-28T11:13:47.103Z,16.19
2019-02-28T11:19:42.065Z,27.65
2019-02-28T11:25:37.087Z,28.07
2019-02-28T11:31:32.065Z,29.62
2019-02-28T11:37:27.093Z,29.05
2019-02-28T11:43:22.078Z,28.6
2019-02-28T11:49:17.089Z,30.49
2019-02-28T11:55:12.117Z,32.75
2019-02-28T12:01:09.938Z,29.26
2019-02-28T12:07:02.154Z,30.34
2019-02-28T12:12:57.101Z,28.75
2019-02-28T12:18:52.115Z,26.11
2019-02-28T12:24:47.132Z,29.22
2019-02-28T12:30:42.113Z,27.23
2019-02-28T12:36:37.145Z,27.57
2019-02-28T12:42:34.570Z,25.7
2019-02-28T12:48:27.349Z,23
2019-02-28T12:54:22.130Z,24.04
2019-02-28T13:00:19.807Z,24.6
2019-02-28T13:06:12.166Z,22.42
2019-02-28T13:12:08.012Z,22.4
2019-02-28T13:18:07.074Z,23.76
2019-02-28T13:23:57.182Z,23.56
2019-02-28T13:29:53.223Z,25.27
2019-02-28T13:35:47.691Z,23.89
2019-02-28T13:41:42.208Z,15.57
2019-02-28T13:47:37.160Z,24.36
2019-02-28T13:53:32.161Z,26.66
2019-02-28T13:59:28.413Z,25.72
2019-02-28T14:05:22.159Z,24.7
2019-02-28T14:11:17.153Z,25.53
2019-02-28T14:17:12.158Z,25.17
2019-02-28T14:23:07.200Z,25.17
2019-02-28T14:29:02.221Z,27.4
2019-02-28T14:34:59.700Z,27.42
2019-02-28T14:40:52.730Z,23.49
2019-02-28T14:46:49.745Z,16.3
2019-02-28T14:52:42.166Z,19.46
2019-02-28T14:58:37.206Z,15.43
2019-02-28T15:04:32.226Z,24.31
2019-02-28T15:10:27.201Z,20.83
2019-02-28T15:16:22.190Z,18.26
2019-02-28T15:22:17.371Z,17.32
2019-02-28T15:28:13.783Z,20.29
2019-02-28T15:34:07.248Z,20.32
2019-02-28T15:40:02.192Z,9.37
2019-02-28T15:45:57.211Z,10.4
2019-02-28T15:51:52.246Z,8.88
2019-02-28T15:57:47.219Z,7.81
2019-02-28T16:03:42.241Z,7.37
2019-02-28T16:09:37.222Z,7.51
2019-02-28T16:15:32.234Z,7.78
2019-02-28T16:21:27.253Z,7.44
2019-02-28T16:27:22.263Z,7.5
2019-02-28T16:33:17.232Z,8.08
2019-02-28T16:39:12.260Z,7.47
2019-02-28T16:45:07.249Z,7.02
2019-02-28T16:51:02.301Z,8.13
2019-02-28T16:56:57.252Z,10.75
2019-02-28T17:02:52.251Z,11.25
2019-02-28T17:08:47.256Z,10.88
2019-02-28T17:14:42.257Z,9.42
2019-02-28T17:20:37.575Z,12.67
2019-02-28T17:26:32.266Z,12.24
2019-02-28T17:32:30.950Z,9.31
2019-02-28T17:38:22.286Z,9.8
2019-02-28T17:44:17.279Z,11.1
2019-02-28T17:50:12.307Z,11.01
2019-02-28T17:56:07.274Z,12.33
2019-02-28T18:02:05.098Z,17.86
2019-02-28T18:07:57.768Z,24.8
2019-02-28T18:13:55.140Z,18.06
2019-02-28T18:19:47.285Z,16.04
2019-02-28T18:25:42.297Z,21.13
2019-02-28T18:31:37.303Z,21.79
2019-02-28T18:37:32.332Z,27.6
2019-02-28T18:43:27.954Z,20.17
2019-02-28T18:49:22.302Z,29.33
2019-02-28T18:55:17.312Z,24.2
2019-02-28T19:01:12.316Z,33.44
2019-02-28T19:07:07.327Z,23.25
2019-02-28T19:13:02.342Z,24.29
2019-02-28T19:18:57.318Z,26.01
2019-02-28T19:24:52.330Z,21.85
2019-02-28T19:30:47.352Z,19.67
2019-02-28T19:36:42.325Z,17.5
2019-02-28T19:42:37.356Z,19.17
2019-02-28T19:48:32.341Z,20.21
2019-02-28T19:54:27.395Z,19.31
2019-02-28T20:00:22.344Z,20.15
2019-02-28T20:06:17.426Z,26.3
2019-02-28T20:12:12.405Z,21.93
2019-02-28T20:18:07.391Z,17.74
2019-02-28T20:24:02.376Z,21.68
2019-02-28T20:29:57.367Z,29.56
2019-02-28T20:35:52.459Z,23.65
2019-02-28T20:41:47.391Z,23.42
2019-02-28T20:47:42.366Z,23.43
2019-02-28T20:53:37.400Z,22.78
2019-02-28T20:59:32.392Z,22
2019-02-28T21:05:27.401Z,21.83
2019-02-28T21:11:22.375Z,21.44
2019-02-28T21:17:17.377Z,22.99
2019-02-28T21:23:12.420Z,24.43
2019-02-28T21:29:07.391Z,24.23
2019-02-28T21:35:02.414Z,24.45
2019-02-28T21:40:57.408Z,23.33
2019-02-28T21:46:52.387Z,22.8
2019-02-28T21:52:47.410Z,20.87
2019-02-28T21:58:42.466Z,22.7
2019-02-28T22:04:37.409Z,22.47
2019-02-28T22:10:32.442Z,24.63
2019-02-28T22:16:27.422Z,31.11
2019-02-28T22:22:22.438Z,24.81
2019-02-28T22:28:17.487Z,22.75
2019-02-28T22:34:12.475Z,22.78
2019-02-28T22:40:07.457Z,21.73
2019-02-28T22:46:02.459Z,18.23
2019-02-28T22:51:57.462Z,18.19
2019-02-28T22:57:52.463Z,18.53
2019-02-28T23:03:47.452Z,16.21
2019-02-28T23:09:42.477Z,16.96
2019-02-28T23:15:37.460Z,16.74
2019-02-28T23:21:32.442Z,16.84
2019-02-28T23:27:27.452Z,17.45
2019-02-28T23:33:22.470Z,16.59
2019-02-28T23:39:17.462Z,16.55
2019-02-28T23:45:12.476Z,25.69
2019-02-28T23:51:07.544Z,26.24
2019-02-28T23:57:02.461Z,26.29
